Time;durP1;ratioP1;P1;durP2;ratioP2;P2;SDS_P1;SDS_P2;PMS_P1;PMS_P2;Temp;Humidity;BMP_temperature;BMP_pressure;BME280_temperature;BME280_humidity;BME280_pressure;Samples;Min_cycle;Max_cycle;Signal;HPM_P1;HPM_P2
2021/04/08 00:00:16;;;;;;;6.55;5.47;;;;;;;-0.32;80.00;98727.97;1799927;79;21045;-64
2021/04/08 00:02:44;;;;;;;6.03;5.40;;;;;;;-0.31;79.99;98730.95;1799924;79;21064;-64
2021/04/08 00:05:14;;;;;;;7.87;5.90;;;;;;;-0.33;79.97;98729.69;1799903;79;21056;-64
2021/04/08 00:07:42;;;;;;;7.50;5.67;;;;;;;-0.33;79.87;98736.50;1800038;79;22275;-61
2021/04/08 00:10:12;;;;;;;8.50;5.42;;;;;;;-0.37;79.89;98727.58;1799932;79;21462;-62
2021/04/08 00:12:39;;;;;;;10.10;5.28;;;;;;;-0.37;79.83;98737.80;1799916;79;21085;-63
2021/04/08 00:15:11;;;;;;;6.03;5.28;;;;;;;-0.39;79.79;98737.39;1799911;79;21148;-62
2021/04/08 00:17:39;;;;;;;7.28;5.33;;;;;;;-0.39;79.76;98746.34;1800044;79;21524;-62
2021/04/08 00:20:18;;;;;;;8.20;5.72;;;;;;;-0.40;79.81;98748.51;1799910;79;21148;-63
2021/04/08 00:22:46;;;;;;;8.13;5.75;;;;;;;-0.41;79.74;98751.48;1799859;78;21092;-63
2021/04/08 00:25:14;;;;;;;8.30;5.40;;;;;;;-0.42;79.65;98747.67;1799942;78;21457;-63
2021/04/08 00:27:43;;;;;;;6.55;5.20;;;;;;;-0.44;79.65;98754.50;1799850;79;21923;-63
2021/04/08 00:30:12;;;;;;;8.73;5.85;;;;;;;-0.45;79.62;98756.63;1799940;78;21040;-63
2021/04/08 00:32:40;;;;;;;8.40;5.35;;;;;;;-0.45;79.62;98756.20;1799980;79;22340;-64
2021/04/08 00:35:10;;;;;;;7.30;5.33;;;;;;;-0.45;79.61;98762.59;1799759;78;21092;-64
2021/04/08 00:37:38;;;;;;;7.37;5.65;;;;;;;-0.44;79.54;98758.33;1799892;79;21072;-64
2021/04/08 00:40:11;;;;;;;8.73;5.80;;;;;;;-0.44;79.48;98759.18;1799877;78;21057;-64
2021/04/08 00:42:40;;;;;;;7.15;5.25;;;;;;;-0.44;79.52;98763.01;1800056;79;26541;-64
2021/04/08 00:45:09;;;;;;;7.12;5.67;;;;;;;-0.45;79.51;98760.47;1800251;79;21365;-64
2021/04/08 00:47:37;;;;;;;8.95;6.62;;;;;;;-0.43;79.46;98760.02;1807841;78;21572;-64
2021/04/08 00:50:07;;;;;;;6.95;4.87;;;;;;;-0.42;79.41;98767.67;1778555;79;21489;-64
2021/04/08 00:52:36;;;;;;;6.20;5.60;;;;;;;-0.41;79.34;98765.55;1807848;78;21037;-64
2021/04/08 00:55:07;;;;;;;7.15;5.40;;;;;;;-0.43;79.33;98767.27;1807844;79;21057;-64
2021/04/08 00:57:34;;;;;;;7.92;6.00;;;;;;;-0.42;79.29;98768.95;1807927;79;21457;-63
2021/04/08 01:00:25;;;;;;;11.15;5.30;;;;;;;-0.42;79.27;98768.95;1778993;78;21085;-63
2021/04/08 01:02:53;;;;;;;9.88;6.17;;;;;;;-0.42;79.27;98774.49;1756519;81;21471;-63
2021/04/08 01:05:21;;;;;;;6.45;5.75;;;;;;;-0.42;79.20;98772.79;1756397;81;21051;-63
2021/04/08 01:07:50;;;;;;;7.50;5.92;;;;;;;-0.44;79.14;98774.50;1756506;81;21054;-63
2021/04/08 01:10:20;;;;;;;8.13;6.00;;;;;;;-0.43;79.12;98777.48;1756439;81;21383;-63
2021/04/08 01:12:53;;;;;;;8.28;5.40;;;;;;;-0.42;79.06;98784.72;1756414;80;21598;-63
2021/04/08 01:15:23;;;;;;;7.60;5.12;;;;;;;-0.44;78.98;98783.45;1756442;81;21047;-63
2021/04/08 01:18:02;;;;;;;6.75;6.03;;;;;;;-0.45;78.97;98786.02;1756506;81;21500;-63
2021/04/08 01:20:54;;;;;;;7.05;5.20;;;;;;;-0.47;78.99;98783.89;1756543;80;21535;-63
2021/04/08 01:24:04;;;;;;;9.10;6.05;;;;;;;-0.48;78.99;98788.16;1756008;81;21405;-63
2021/04/08 01:26:49;;;;;;;7.95;5.75;;;;;;;-0.48;78.94;98794.97;1755763;81;21507;-64
2021/04/08 01:30:11;;;;;;;8.13;5.78;;;;;;;-0.51;78.95;98798.83;1756389;81;21137;-63
2021/04/08 01:32:43;;;;;;;10.93;6.37;;;;;;;-0.52;78.98;98806.06;1756425;81;21102;-61
2021/04/08 01:35:11;;;;;;;7.67;5.70;;;;;;;-0.53;79.02;98809.05;1756492;81;21026;-62
2021/04/08 01:38:20;;;;;;;7.55;5.87;;;;;;;-0.55;79.06;98811.20;1756469;80;22118;-62
2021/04/08 01:40:47;;;;;;;6.58;5.50;;;;;;;-0.57;79.05;98820.14;1756360;81;21557;-64
2021/04/08 01:43:16;;;;;;;7.45;5.70;;;;;;;-0.59;79.07;98826.11;1756389;81;21141;-63
2021/04/08 01:45:44;;;;;;;8.83;6.20;;;;;;;-0.60;79.07;98824.45;1756351;81;21989;-63
2021/04/08 01:48:13;;;;;;;7.95;5.87;;;;;;;-0.61;79.05;98831.70;1727468;81;21126;-62
2021/04/08 01:50:40;;;;;;;8.83;6.12;;;;;;;-0.61;79.01;98829.14;1756528;80;22795;-62
2021/04/08 01:53:08;;;;;;;14.20;5.72;;;;;;;-0.63;79.01;98837.23;1756476;81;21577;-61
2021/04/08 01:55:36;;;;;;;7.80;5.58;;;;;;;-0.64;78.99;98832.98;1756382;80;21185;-62
2021/04/08 01:58:04;;;;;;;11.65;5.70;;;;;;;-0.62;78.96;98841.48;1756399;81;21087;-62
2021/04/08 02:00:32;;;;;;;7.80;5.62;;;;;;;-0.61;78.94;98850.42;1756410;80;21478;-63
2021/04/08 02:03:00;;;;;;;7.78;5.75;;;;;;;-0.59;78.84;98854.21;1756382;81;21194;-64
2021/04/08 02:05:28;;;;;;;7.72;5.45;;;;;;;-0.59;78.84;98855.48;1756310;81;21110;-63
2021/04/08 02:07:57;;;;;;;7.67;5.97;;;;;;;-0.59;78.77;98855.06;1727207;81;21550;-63
2021/04/08 02:10:27;;;;;;;7.92;5.87;;;;;;;-0.60;78.76;98862.30;1727292;81;21050;-63
2021/04/08 02:12:54;;;;;;;7.75;6.12;;;;;;;-0.60;78.80;98869.96;1727599;81;21067;-64
2021/04/08 02:15:23;;;;;;;8.15;6.20;;;;;;;-0.61;78.82;98872.55;1756476;81;22307;-64
2021/04/08 02:17:55;;;;;;;8.15;6.25;;;;;;;-0.63;78.76;98875.55;1727316;81;21090;-64
2021/04/08 02:20:31;;;;;;;16.37;7.50;;;;;;;-0.64;78.81;98882.78;1756564;81;21475;-63
2021/04/08 02:23:02;;;;;;;10.58;7.15;;;;;;;-0.68;78.81;98884.93;1756394;81;21158;-63
2021/04/08 02:25:33;;;;;;;10.28;8.00;;;;;;;-0.70;78.99;98883.66;1756457;80;21062;-63
2021/04/08 02:28:04;;;;;;;9.70;6.50;;;;;;;-0.70;78.97;98889.62;1756517;81;22237;-63
2021/04/08 02:30:45;;;;;;;8.83;6.22;;;;;;;-0.68;79.11;98888.77;1727938;81;21506;-63
2021/04/08 02:33:02;;;;;;;7.17;5.62;;;;;;;-0.66;79.09;98896.84;1754067;81;21510;-63
2021/04/08 02:35:29;;;;;;;7.67;6.25;;;;;;;-0.64;79.05;98893.00;1756348;81;21126;-63
2021/04/08 02:37:57;;;;;;;8.70;6.80;;;;;;;-0.62;78.91;98902.78;1756357;80;21101;-63
2021/04/08 02:40:25;;;;;;;10.25;6.83;;;;;;;-0.64;78.80;98903.22;1756442;80;21989;-63
2021/04/08 02:42:52;;;;;;;14.83;6.72;;;;;;;-0.65;78.77;98902.37;1756336;81;21051;-63
2021/04/08 02:45:21;;;;;;;8.30;6.35;;;;;;;-0.64;78.89;98905.34;1756346;80;21050;-63
2021/04/08 02:47:49;;;;;;;9.25;5.87;;;;;;;-0.62;78.81;98907.89;1756369;80;21566;-63
2021/04/08 02:50:17;;;;;;;8.30;6.62;;;;;;;-0.63;78.82;98908.75;1756481;81;21594;-63
2021/04/08 02:53:05;;;;;;;8.43;6.45;;;;;;;-0.63;78.75;98910.87;1756503;81;21495;-63
2021/04/08 02:55:53;;;;;;;12.37;6.28;;;;;;;-0.64;78.59;98911.73;1756582;81;21530;-63
2021/04/08 02:58:21;;;;;;;9.80;6.20;;;;;;;-0.67;78.75;98924.51;1756561;81;21501;-63
2021/04/08 03:01:02;;;;;;;8.58;6.22;;;;;;;-0.69;78.77;98926.22;1756483;80;21122;-63
2021/04/08 03:03:34;;;;;;;26.73;7.12;;;;;;;-0.70;78.85;98932.18;1749119;81;21074;-63
2021/04/08 03:06:04;;;;;;;18.75;7.83;;;;;;;-0.71;78.84;98928.78;1756514;81;21422;-63
2021/04/08 03:08:34;;;;;;;17.85;7.20;;;;;;;-0.70;78.77;98936.86;1756493;81;21071;-63
2021/04/08 03:11:07;;;;;;;10.32;6.65;;;;;;;-0.71;78.77;98944.09;1756588;81;21495;-63
2021/04/08 03:13:36;;;;;;;18.77;7.00;;;;;;;-0.72;78.69;98952.61;1756622;80;28539;-63
2021/04/08 03:16:09;;;;;;;21.42;6.00;;;;;;;-0.74;78.81;98956.02;1756648;80;21055;-63
2021/04/08 03:18:37;;;;;;;12.23;7.50;;;;;;;-0.74;78.80;98959.86;1756760;80;22121;-63
2021/04/08 03:21:06;;;;;;;7.58;6.40;;;;;;;-0.74;78.89;98955.59;1756450;81;21498;-63
2021/04/08 03:23:33;;;;;;;9.05;6.65;;;;;;;-0.71;78.99;98963.25;1756607;81;21478;-63
2021/04/08 03:26:03;;;;;;;8.30;6.15;;;;;;;-0.68;78.86;98971.75;1756504;81;21050;-63
2021/04/08 03:28:31;;;;;;;21.07;6.97;;;;;;;-0.68;78.84;98966.65;1756510;81;21494;-63
2021/04/08 03:30:58;;;;;;;11.25;7.58;;;;;;;-0.68;78.82;98966.65;1756469;81;23532;-63
2021/04/08 03:33:26;;;;;;;15.83;7.70;;;;;;;-0.68;78.84;98973.03;1727073;81;21613;-63
2021/04/08 03:35:53;;;;;;;9.63;6.65;;;;;;;-0.68;78.71;98974.31;1756478;80;21074;-63
2021/04/08 03:38:21;;;;;;;12.35;6.87;;;;;;;-0.66;78.88;98973.45;1756484;81;21487;-63
2021/04/08 03:40:48;;;;;;;10.95;6.30;;;;;;;-0.59;78.82;98978.93;1756567;80;21059;-63
2021/04/08 03:43:16;;;;;;;8.48;6.70;;;;;;;-0.52;78.69;98981.89;1727280;81;21577;-63
2021/04/08 03:45:44;;;;;;;15.65;7.62;;;;;;;-0.40;78.59;98981.00;1756414;80;21522;-63
2021/04/08 03:48:13;;;;;;;8.73;7.15;;;;;;;-0.24;78.45;98980.47;1756492;81;21070;-63
2021/04/08 03:50:42;;;;;;;16.15;7.30;;;;;;;-0.05;78.20;98983.33;1756504;81;21046;-63
2021/04/08 03:53:09;;;;;;;11.63;7.08;;;;;;;0.18;77.86;98988.28;1756446;80;21137;-63
2021/04/08 03:55:39;;;;;;;24.57;9.08;;;;;;;0.39;77.18;98991.10;1756511;81;21361;-64
2021/04/08 03:58:08;;;;;;;15.03;6.92;;;;;;;0.55;76.83;98996.07;1703906;81;21178;-63
2021/04/08 04:00:35;;;;;;;10.48;6.50;;;;;;;0.79;76.28;98995.00;1695714;81;21156;-63
2021/04/08 04:03:04;;;;;;;18.82;7.65;;;;;;;1.00;75.52;98995.18;1760354;80;21981;-63
2021/04/08 04:05:31;;;;;;;13.00;7.87;;;;;;;1.11;74.87;99001.05;1762070;80;21638;-63
2021/04/08 04:08:01;;;;;;;8.50;6.28;;;;;;;1.11;74.52;99001.05;1761903;80;21361;-63
2021/04/08 04:10:29;;;;;;;10.60;7.35;;;;;;;1.10;74.43;99010.03;1762095;80;21149;-63
2021/04/08 04:12:57;;;;;;;11.25;7.47;;;;;;;1.07;74.12;99010.91;1762108;80;21601;-63
2021/04/08 04:15:25;;;;;;;12.07;7.37;;;;;;;1.07;74.13;99010.05;1762090;81;21156;-63
2021/04/08 04:17:53;;;;;;;16.97;7.95;;;;;;;1.14;74.17;99016.39;1762122;81;21487;-64
2021/04/08 04:20:21;;;;;;;17.73;8.25;;;;;;;1.35;74.10;99017.43;1762112;80;22757;-64
2021/04/08 04:22:49;;;;;;;19.42;8.25;;;;;;;1.71;73.97;99020.40;1762006;80;21992;-64
2021/04/08 04:25:18;;;;;;;8.93;6.87;;;;;;;2.16;73.61;99020.20;1762082;80;21117;-63
2021/04/08 04:27:46;;;;;;;10.65;7.15;;;;;;;2.56;71.91;99025.99;1762071;81;21145;-64
2021/04/08 04:30:15;;;;;;;12.10;7.50;;;;;;;2.78;70.63;99017.06;1762118;81;21463;-64
2021/04/08 04:32:43;;;;;;;17.27;14.65;;;;;;;2.94;69.83;99020.20;1762063;81;21264;-64
2021/04/08 04:35:12;;;;;;;18.12;8.25;;;;;;;3.13;69.01;99020.27;1762002;81;21478;-63
2021/04/08 04:37:40;;;;;;;7.40;6.12;;;;;;;3.32;68.49;99014.34;1762191;81;21571;-63
2021/04/08 04:40:09;;;;;;;13.55;6.37;;;;;;;3.51;67.65;99016.10;1762074;81;21145;-63
2021/04/08 04:42:37;;;;;;;14.25;7.00;;;;;;;3.66;67.06;99021.77;1762092;81;21124;-63
2021/04/08 04:45:06;;;;;;;10.60;7.55;;;;;;;3.90;66.85;99017.84;1762030;80;21178;-63
2021/04/08 04:47:35;;;;;;;11.45;7.25;;;;;;;4.17;65.83;99027.97;1762091;81;21498;-63
2021/04/08 04:50:06;;;;;;;8.93;6.75;;;;;;;4.38;65.00;99021.04;1762075;81;21046;-63
2021/04/08 04:52:33;;;;;;;8.05;7.00;;;;;;;4.57;64.19;99024.02;1762126;81;21486;-64
2021/04/08 04:55:01;;;;;;;15.05;7.85;;;;;;;4.75;63.98;99026.58;1762053;80;21693;-63
2021/04/08 04:57:28;;;;;;;9.40;6.80;;;;;;;4.93;63.02;99029.12;1762027;81;21320;-63
2021/04/08 04:59:56;;;;;;;12.55;7.50;;;;;;;4.89;62.48;99029.64;1761973;80;21167;-63
2021/04/08 05:02:24;;;;;;;9.93;7.78;;;;;;;4.79;62.47;99031.63;1760208;80;21074;-63
2021/04/08 05:04:51;;;;;;;7.67;6.75;;;;;;;4.76;62.61;99034.71;1756437;81;21067;-63
2021/04/08 05:07:19;;;;;;;8.48;6.37;;;;;;;4.64;62.11;99042.72;1756416;81;21102;-64
2021/04/08 05:09:47;;;;;;;9.53;7.42;;;;;;;4.42;62.26;99032.09;1756375;81;21198;-64
2021/04/08 05:12:14;;;;;;;10.40;8.93;;;;;;;4.21;63.05;99038.58;1756308;80;21073;-63
2021/04/08 05:14:42;;;;;;;14.58;7.75;;;;;;;4.10;63.48;99041.84;1756379;81;21055;-63
2021/04/08 05:17:10;;;;;;;8.70;7.80;;;;;;;4.07;64.09;99033.75;1756337;81;21134;-63
2021/04/08 05:19:37;;;;;;;8.60;6.92;;;;;;;4.10;63.98;99036.26;1753737;81;21736;-64
2021/04/08 05:22:05;;;;;;;8.93;7.00;;;;;;;4.15;63.69;99040.02;1703650;84;22287;-64
2021/04/08 05:24:33;;;;;;;9.08;7.03;;;;;;;4.14;63.26;99037.89;1704335;84;21177;-64
2021/04/08 05:27:00;;;;;;;11.18;7.35;;;;;;;4.12;63.75;99040.94;1705000;84;21612;-63
2021/04/08 05:29:28;;;;;;;8.25;6.87;;;;;;;4.18;63.82;99041.25;1705005;84;21173;-63
2021/04/08 05:31:56;;;;;;;9.18;7.87;;;;;;;4.18;63.87;99037.83;1705014;82;21179;-64
2021/04/08 05:34:24;;;;;;;10.45;7.15;;;;;;;4.19;63.69;99036.95;1704944;84;22458;-63
2021/04/08 05:36:52;;;;;;;10.45;8.85;;;;;;;4.16;63.67;99043.00;1704887;84;21085;-64
2021/04/08 05:39:20;;;;;;;12.55;9.85;;;;;;;4.11;63.71;99036.67;1704909;82;21157;-65
2021/04/08 05:41:48;;;;;;;14.58;11.15;;;;;;;4.07;63.87;99042.75;1704891;84;21076;-64
2021/04/08 05:44:16;;;;;;;12.82;10.72;;;;;;;3.98;64.27;99038.27;1704871;84;21250;-64
2021/04/08 05:46:44;;;;;;;14.18;8.10;;;;;;;3.90;64.45;99044.85;1684985;84;21213;-64
2021/04/08 05:49:13;;;;;;;11.73;7.83;;;;;;;3.81;64.34;99047.17;1709069;81;21181;-64
2021/04/08 05:51:41;;;;;;;11.35;7.25;;;;;;;3.74;65.08;99056.34;1721567;81;21189;-64
2021/04/08 05:54:08;;;;;;;8.10;6.90;;;;;;;3.75;64.89;99058.05;1696720;84;21658;-64
2021/04/08 05:56:36;;;;;;;9.18;6.70;;;;;;;3.70;64.96;99058.13;1696984;84;21678;-64
2021/04/08 05:59:04;;;;;;;11.63;8.00;;;;;;;3.62;65.27;99062.56;1696443;83;22351;-68
2021/04/08 06:01:32;;;;;;;12.80;7.75;;;;;;;3.55;65.86;99062.73;1700502;84;21182;-66
2021/04/08 06:04:01;;;;;;;9.00;7.20;;;;;;;3.51;65.77;99069.66;1693028;82;21161;-66
2021/04/08 06:06:29;;;;;;;10.82;7.53;;;;;;;3.45;66.38;99072.34;1676603;84;21594;-63
2021/04/08 06:09:01;;;;;;;12.40;8.60;;;;;;;3.44;66.10;99068.92;1678578;84;21094;-66
2021/04/08 06:11:29;;;;;;;9.40;6.22;;;;;;;3.42;66.10;99074.97;1676759;84;22205;-65
2021/04/08 06:13:57;;;;;;;13.48;7.22;;;;;;;3.39;66.30;99081.04;1686318;84;21582;-64
2021/04/08 06:16:24;;;;;;;11.03;7.65;;;;;;;3.38;66.83;99083.20;1705036;82;21483;-64
2021/04/08 06:18:54;;;;;;;17.32;8.10;;;;;;;3.36;67.03;99088.80;1703628;82;21214;-64
2021/04/08 06:21:21;;;;;;;18.12;9.10;;;;;;;3.36;67.31;99087.95;1703810;84;21182;-64
2021/04/08 06:23:53;;;;;;;15.50;7.37;;;;;;;3.42;67.11;99091.23;1704874;84;22311;-64
2021/04/08 06:26:23;;;;;;;9.68;7.87;;;;;;;3.53;66.72;99095.34;1705277;82;21118;-64
2021/04/08 06:28:52;;;;;;;16.93;8.05;;;;;;;3.58;66.06;99098.69;1701037;84;21186;-65
2021/04/08 06:31:19;;;;;;;12.43;7.62;;;;;;;3.60;66.39;99098.19;1718863;83;21682;-65
2021/04/08 06:33:47;;;;;;;23.05;7.97;;;;;;;3.63;65.98;99095.56;1695764;84;21535;-64
2021/04/08 06:36:17;;;;;;;7.42;6.47;;;;;;;3.62;65.61;99101.58;1721532;83;21232;-64
2021/04/08 06:38:44;;;;;;;10.13;7.35;;;;;;;3.57;65.50;99105.55;1695780;84;21098;-63
2021/04/08 06:41:13;;;;;;;14.43;7.90;;;;;;;3.56;65.26;99119.28;1721484;83;21520;-62
2021/04/08 06:43:41;;;;;;;8.85;7.12;;;;;;;3.55;65.88;99123.16;1695924;84;21535;-65
2021/04/08 06:46:16;;;;;;;11.97;8.28;;;;;;;3.59;66.04;99120.52;1721442;83;21123;-65
2021/04/08 06:49:02;;;;;;;11.65;7.30;;;;;;;3.67;65.61;99120.34;1695655;84;21223;-64
2021/04/08 06:51:32;;;;;;;14.68;7.70;;;;;;;3.71;65.01;99121.99;1721404;83;21083;-65
2021/04/08 06:54:01;;;;;;;19.00;8.58;;;;;;;3.73;65.60;99127.52;1695818;84;21079;-63
2021/04/08 06:56:29;;;;;;;24.35;7.97;;;;;;;3.79;66.25;99133.84;1721440;83;21610;-67
2021/04/08 06:58:57;;;;;;;29.35;9.10;;;;;;;3.89;65.19;99129.34;1695838;84;21590;-63
2021/04/08 07:01:26;;;;;;;11.38;6.92;;;;;;;3.94;64.56;99129.26;1719770;83;21375;-65
2021/04/08 07:03:54;;;;;;;10.15;7.60;;;;;;;3.93;64.76;99132.27;1693001;84;21103;-64
2021/04/08 07:06:22;;;;;;;11.97;7.70;;;;;;;3.95;64.65;99147.68;1722487;83;21511;-64
2021/04/08 07:08:50;;;;;;;9.75;6.97;;;;;;;4.00;64.83;99141.54;1722514;83;21583;-64
2021/04/08 07:11:19;;;;;;;19.90;7.70;;;;;;;4.09;64.38;99140.52;1704190;84;21150;-64
2021/04/08 07:13:47;;;;;;;14.55;8.13;;;;;;;4.11;63.96;99146.48;1722506;83;21218;-64
2021/04/08 07:16:16;;;;;;;19.65;9.85;;;;;;;4.14;63.80;99150.29;1722047;83;21627;-64
2021/04/08 07:18:46;;;;;;;12.65;7.62;;;;;;;4.18;64.46;99138.20;1704200;84;21483;-64
2021/04/08 07:21:13;;;;;;;21.23;7.70;;;;;;;4.24;63.72;99154.35;1722228;83;21085;-65
2021/04/08 07:24:17;;;;;;;12.90;8.00;;;;;;;4.33;63.64;99155.45;1704283;84;21158;-65
2021/04/08 07:27:04;;;;;;;14.28;6.45;;;;;;;4.38;63.03;99155.37;1722426;83;22368;-63
2021/04/08 07:29:44;;;;;;;47.03;11.20;;;;;;;4.43;63.32;99167.23;1722270;83;21099;-64
2021/04/08 07:32:25;;;;;;;21.23;8.33;;;;;;;4.46;63.17;99165.89;1703966;84;21138;-65
2021/04/08 07:34:57;;;;;;;14.23;6.75;;;;;;;4.53;62.36;99169.19;1722380;83;21480;-66
2021/04/08 07:37:34;;;;;;;21.35;7.17;;;;;;;4.61;62.57;99173.72;1722026;83;21129;-65
2021/04/08 07:40:14;;;;;;;12.95;7.25;;;;;;;4.74;62.30;99176.44;1705296;82;21732;-67
2021/04/08 07:42:42;;;;;;;10.50;7.22;;;;;;;4.82;61.58;99176.25;1723709;83;21063;-65
2021/04/08 07:45:14;;;;;;;29.87;11.68;;;;;;;4.80;61.83;99181.88;1722648;83;21243;-65
2021/04/08 07:47:43;;;;;;;41.35;10.95;;;;;;;4.82;62.97;99183.54;1703087;84;21231;-66
2021/04/08 07:50:15;;;;;;;12.50;8.08;;;;;;;5.03;62.84;99186.50;1723551;83;21672;-66
2021/04/08 07:52:49;;;;;;;18.98;8.40;;;;;;;5.28;60.75;99190.20;1723795;82;21202;-64
2021/04/08 07:55:23;;;;;;;13.40;7.30;;;;;;;5.49;60.07;99190.95;1705751;82;21156;-64
2021/04/08 07:58:12;;;;;;;11.08;7.33;;;;;;;5.72;59.55;99186.94;1723836;82;21646;-65
2021/04/08 08:00:49;;;;;;;57.35;12.65;;;;;;;5.92;59.03;99187.28;1722833;82;21146;-66
2021/04/08 08:03:32;;;;;;;8.68;7.30;;;;;;;6.03;58.17;99190.40;1705382;82;21163;-64
2021/04/08 08:06:01;;;;;;;14.55;8.60;;;;;;;6.10;58.08;99204.00;1727521;83;22109;-65
2021/04/08 08:08:41;;;;;;;15.30;8.75;;;;;;;6.20;57.83;99204.12;1727780;82;21146;-67
2021/04/08 08:11:14;;;;;;;11.25;6.72;;;;;;;6.30;56.99;99198.27;1727825;83;21136;-67
2021/04/08 08:13:51;;;;;;;14.85;9.38;;;;;;;6.34;56.86;99203.31;1727787;81;21109;-63
2021/04/08 08:16:27;;;;;;;18.12;7.25;;;;;;;6.30;56.42;99199.56;1727755;81;21144;-64
2021/04/08 08:18:59;;;;;;;14.43;6.92;;;;;;;6.39;56.45;99205.33;1726614;82;21196;-65
2021/04/08 08:21:35;;;;;;;8.98;6.12;;;;;;;6.47;54.90;99204.65;1709480;83;21565;-63
2021/04/08 08:24:11;;;;;;;15.28;7.10;;;;;;;6.47;55.17;99203.36;1727880;81;21189;-63
2021/04/08 08:26:48;;;;;;;10.68;6.47;;;;;;;6.58;55.22;99206.94;1727804;81;21108;-64
2021/04/08 08:29:23;;;;;;;15.85;6.90;;;;;;;6.60;54.71;99206.86;1727991;81;21624;-65
2021/04/08 08:31:58;;;;;;;11.33;6.20;;;;;;;6.65;54.25;99212.30;1727517;83;21430;-64
2021/04/08 08:34:33;;;;;;;7.03;5.50;;;;;;;6.76;52.91;99209.41;1727753;81;21073;-62
2021/04/08 08:37:09;;;;;;;18.02;7.85;;;;;;;6.75;51.20;99209.02;1727938;83;21557;-65
2021/04/08 08:39:44;;;;;;;11.28;5.70;;;;;;;6.63;51.33;99216.66;1727826;81;21180;-63
2021/04/08 08:42:18;;;;;;;9.70;6.03;;;;;;;6.61;51.83;99210.69;1727868;82;21446;-65
2021/04/08 08:44:49;;;;;;;15.13;6.28;;;;;;;6.52;52.50;99222.16;1727906;81;22099;-67
2021/04/08 08:47:37;;;;;;;6.47;5.20;;;;;;;6.39;52.54;99216.95;1727715;81;21215;-64
2021/04/08 08:50:11;;;;;;;15.10;5.47;;;;;;;6.39;52.04;99234.19;1727923;83;21482;-64
2021/04/08 08:52:41;;;;;;;9.18;4.97;;;;;;;6.40;50.80;99220.36;1727856;81;21181;-62
2021/04/08 08:55:13;;;;;;;7.00;4.92;;;;;;;6.44;51.02;99231.01;1727919;82;21605;-62
2021/04/08 08:57:44;;;;;;;5.78;4.65;;;;;;;6.43;49.99;99222.41;1710288;82;21145;-62
2021/04/08 09:00:15;;;;;;;8.30;4.40;;;;;;;6.38;50.48;99226.89;1727830;81;21510;-62
2021/04/08 09:02:44;;;;;;;7.92;4.72;;;;;;;6.36;49.48;99231.25;1727491;83;21109;-63
2021/04/08 09:07:52;;;;;;;13.72;4.10;;;;;;;6.60;47.54;99225.80;1873240;75;22780;-65
2021/04/08 09:10:26;;;;;;;9.23;3.95;;;;;;;6.74;47.73;99227.55;1829449;78;21744;-67
2021/04/08 09:12:56;;;;;;;8.05;3.98;;;;;;;6.99;47.68;99225.08;1824056;78;21930;-65
2021/04/08 09:15:25;;;;;;;12.20;5.00;;;;;;;7.29;46.95;99230.16;1806474;78;21505;-67
2021/04/08 09:17:57;;;;;;;14.83;4.40;;;;;;;7.50;46.42;99229.02;1784745;78;21092;-65
2021/04/08 09:20:25;;;;;;;13.90;5.30;;;;;;;7.69;45.95;99230.55;1828654;78;21120;-65
2021/04/08 09:23:04;;;;;;;6.70;4.17;;;;;;;7.79;46.55;99231.10;1828677;78;21477;-65
2021/04/08 09:25:40;;;;;;;10.28;5.25;;;;;;;7.83;46.38;99230.08;1810596;78;22196;-67
2021/04/08 09:28:16;;;;;;;17.75;4.62;;;;;;;7.80;45.36;99225.00;1828739;78;21460;-65
2021/04/08 09:31:05;;;;;;;6.70;4.10;;;;;;;7.77;45.82;99221.25;1828605;77;21119;-64
2021/04/08 09:33:55;;;;;;;18.52;4.40;;;;;;;7.90;45.91;99216.87;1825642;77;21060;-65
2021/04/08 09:36:37;;;;;;;8.28;3.87;;;;;;;8.00;44.36;99221.72;1796161;80;21159;-64
2021/04/08 09:39:10;;;;;;;7.42;4.08;;;;;;;7.93;45.85;99212.89;1796005;80;22692;-64
2021/04/08 09:41:46;;;;;;;14.53;4.50;;;;;;;8.00;45.12;99210.91;1796070;78;21071;-65
2021/04/08 09:44:14;;;;;;;9.15;3.27;;;;;;;8.14;44.13;99211.74;1796143;80;21555;-66
2021/04/08 09:46:59;;;;;;;11.73;3.50;;;;;;;8.35;42.18;99210.16;1795940;80;21182;-66
2021/04/08 09:49:45;;;;;;;6.65;4.10;;;;;;;8.46;42.89;99211.44;1796015;80;21173;-65
2021/04/08 09:52:14;;;;;;;9.33;2.87;;;;;;;8.59;43.85;99215.73;1796060;80;21363;-65
2021/04/08 09:54:55;;;;;;;5.05;2.87;;;;;;;8.56;40.21;99222.33;1795955;80;21684;-64
2021/04/08 09:57:40;;;;;;;8.85;3.50;;;;;;;8.35;40.36;99220.08;1796018;79;21155;-66
2021/04/08 10:00:13;;;;;;;5.92;3.85;;;;;;;8.09;42.57;99214.94;1796205;80;21495;-66
2021/04/08 10:03:06;;;;;;;19.75;4.72;;;;;;;7.89;44.21;99222.11;1796046;80;21221;-65
2021/04/08 10:05:37;;;;;;;6.83;4.37;;;;;;;7.86;44.87;99224.35;1795970;80;21106;-65
2021/04/08 10:08:06;;;;;;;4.72;3.80;;;;;;;7.74;44.81;99236.88;1798947;79;21563;-65
2021/04/08 10:10:42;;;;;;;10.68;4.70;;;;;;;7.58;45.44;99234.81;1799064;79;21075;-64
2021/04/08 10:13:28;;;;;;;7.87;4.17;;;;;;;7.40;46.58;99232.80;1800211;79;21175;-65
2021/04/08 10:16:04;;;;;;;7.03;4.67;;;;;;;7.35;47.11;99229.53;1814700;79;21144;-65
2021/04/08 10:18:33;;;;;;;8.60;4.20;;;;;;;7.32;47.11;99231.36;1814792;79;21372;-64
2021/04/08 10:21:05;;;;;;;5.33;3.75;;;;;;;7.47;47.97;99224.39;1816354;78;21081;-66
2021/04/08 10:23:47;;;;;;;4.58;3.50;;;;;;;7.76;45.37;99220.40;1816528;79;21592;-64
2021/04/08 10:26:21;;;;;;;16.90;5.33;;;;;;;7.90;44.27;99234.16;1816600;79;21108;-65
2021/04/08 10:29:00;;;;;;;8.40;3.47;;;;;;;7.98;44.98;99247.70;1873580;76;22693;-65
2021/04/08 10:31:35;;;;;;;5.58;2.98;;;;;;;7.85;48.28;99260.20;1841525;77;21069;-65
2021/04/08 10:34:19;;;;;;;3.83;2.72;;;;;;;7.45;49.70;99263.70;1814731;76;22288;-65
2021/04/08 10:36:54;;;;;;;3.40;3.10;;;;;;;7.16;51.44;99257.72;1824509;78;21490;-65
2021/04/08 10:39:29;;;;;;;12.95;6.37;;;;;;;7.05;51.82;99267.98;1824548;77;21067;-66
2021/04/08 10:42:10;;;;;;;4.62;3.40;;;;;;;6.92;52.57;99284.31;1824013;78;21086;-64
2021/04/08 10:44:45;;;;;;;4.45;2.92;;;;;;;6.69;53.28;99297.91;1809875;77;21109;-68
2021/04/08 10:47:21;;;;;;;4.50;3.33;;;;;;;6.30;54.98;99308.89;1791676;80;21472;-65
2021/04/08 10:49:52;;;;;;;7.65;3.50;;;;;;;5.90;56.12;99306.50;1791354;78;21125;-65
2021/04/08 10:52:35;;;;;;;4.67;2.95;;;;;;;5.67;56.79;99306.18;1800445;78;21200;-65
2021/04/08 10:55:07;;;;;;;3.33;2.85;;;;;;;5.55;58.57;99307.33;1791794;78;21157;-65
2021/04/08 10:57:34;;;;;;;5.55;3.22;;;;;;;5.52;59.09;99309.54;1792308;80;21140;-66
2021/04/08 11:00:05;;;;;;;6.17;2.98;;;;;;;5.60;60.04;99313.20;1792304;78;22039;-68
2021/04/08 11:02:36;;;;;;;4.17;2.52;;;;;;;5.69;57.65;99331.06;1792421;80;21101;-67
2021/04/08 11:05:07;;;;;;;3.30;2.37;;;;;;;5.67;55.99;99328.11;1792303;80;21081;-64
2021/04/08 11:07:39;;;;;;;3.98;2.47;;;;;;;5.56;56.34;99334.83;1792400;78;21038;-65
2021/04/08 11:10:17;;;;;;;3.25;1.90;;;;;;;5.49;55.64;99339.71;1792519;78;21067;-66
2021/04/08 11:12:50;;;;;;;3.50;2.40;;;;;;;5.45;56.20;99324.74;1796148;78;21183;-65
2021/04/08 11:15:27;;;;;;;2.72;1.92;;;;;;;5.56;55.40;99321.08;1796790;78;21058;-64
2021/04/08 11:17:58;;;;;;;6.08;2.67;;;;;;;5.74;55.16;99321.92;1792345;80;21133;-64
2021/04/08 11:20:33;;;;;;;3.95;1.87;;;;;;;5.94;53.10;99319.73;1792309;80;21067;-65
2021/04/08 11:23:00;;;;;;;9.83;2.30;;;;;;;6.11;52.88;99312.41;1792369;78;21121;-64
2021/04/08 11:25:29;;;;;;;4.42;2.05;;;;;;;6.28;51.55;99318.41;1793384;77;21240;-64
2021/04/08 11:27:59;;;;;;;10.38;3.08;;;;;;;6.42;51.21;99311.13;1816107;77;21170;-63
2021/04/08 11:30:31;;;;;;;5.97;2.50;;;;;;;6.53;49.86;99312.15;1823751;78;21146;-66
2021/04/08 11:32:59;;;;;;;4.85;2.45;;;;;;;6.61;49.94;99308.89;1825978;78;21209;-66
2021/04/08 11:35:38;;;;;;;4.28;2.75;;;;;;;6.74;49.69;99299.07;1826877;78;21034;-66
2021/04/08 11:38:14;;;;;;;4.42;2.58;;;;;;;6.87;48.70;99288.77;1826526;78;21198;-62
2021/04/08 11:40:51;;;;;;;6.67;2.70;;;;;;;6.84;46.62;99292.28;1826778;77;21110;-64
2021/04/08 11:46:40;;;;;;;6.17;3.22;;;;;;;6.33;47.16;99307.97;1808570;78;21740;-67
2021/04/08 11:49:19;;;;;;;14.90;4.42;;;;;;;6.13;48.61;99305.91;1814912;78;21154;-67
2021/04/08 11:51:50;;;;;;;10.15;4.42;;;;;;;6.07;49.39;99302.19;1824007;77;22326;-67
2021/04/08 11:54:20;;;;;;;5.03;3.75;;;;;;;6.08;49.51;99300.02;1824258;77;21090;-68
2021/04/08 11:56:48;;;;;;;5.97;3.65;;;;;;;6.15;48.54;99299.83;1825627;78;21133;-65
2021/04/08 11:59:21;;;;;;;7.00;4.03;;;;;;;6.25;48.35;99299.13;1825473;77;21124;-68
2021/04/08 12:01:55;;;;;;;13.13;3.85;;;;;;;6.36;48.95;99297.12;1820092;78;21030;-64